Time;durP1;ratioP1;P1;durP2;ratioP2;P2;SDS_P1;SDS_P2;PMS_P1;PMS_P2;Temp;Humidity;BMP_temperature;BMP_pressure;BME280_temperature;BME280_humidity;BME280_pressure;Samples;Min_cycle;Max_cycle;Signal;HPM_P1;HPM_P2
2024/02/05 00:12:19;;;;;;;6.30;3.20;;;;;;;7.24;100.00;98855.61;681769;1263;138551;-80
2024/02/05 00:27:23;;;;;;;6.40;2.80;;;;;;;7.33;100.00;98844.03;682008;1265;140033;-80
2024/02/05 00:42:26;;;;;;;14.40;4.70;;;;;;;7.31;100.00;98828.61;681818;1265;139882;-81
2024/02/05 00:57:30;;;;;;;8.20;3.50;;;;;;;7.33;100.00;98817.85;681569;1268;140157;-81
2024/02/05 01:12:33;;;;;;;15.40;5.40;;;;;;;7.45;100.00;98807.42;681809;1266;139160;-80
2024/02/05 01:27:37;;;;;;;21.10;6.30;;;;;;;7.54;100.00;98788.98;681653;1262;139024;-80
2024/02/05 01:42:42;;;;;;;7.20;2.70;;;;;;;7.58;100.00;98789.00;681800;1265;140144;-80
2024/02/05 01:57:46;;;;;;;9.90;3.40;;;;;;;7.72;100.00;98778.15;681670;1262;140189;-80
2024/02/05 02:12:50;;;;;;;7.20;3.10;;;;;;;7.73;100.00;98753.88;681842;1265;139429;-80
2024/02/05 02:27:55;;;;;;;6.70;2.50;;;;;;;7.80;100.00;98731.80;681633;1265;139731;-80
2024/02/05 02:43:05;;;;;;;5.90;2.10;;;;;;;7.70;100.00;98728.45;681656;1277;138513;-81
2024/02/05 02:58:09;;;;;;;9.70;3.10;;;;;;;7.60;100.00;98723.00;681692;1265;138821;-82
2024/02/05 03:13:14;;;;;;;5.60;2.40;;;;;;;7.55;100.00;98721.23;681737;1265;138491;-80
2024/02/05 03:28:26;;;;;;;6.00;3.20;;;;;;;7.48;100.00;98707.79;681807;1265;138599;-81
2024/02/05 03:43:30;;;;;;;5.20;3.00;;;;;;;7.54;100.00;98698.92;681803;1265;139188;-80
2024/02/05 03:58:33;;;;;;;6.60;2.90;;;;;;;7.49;100.00;98697.32;681669;1266;140641;-79
2024/02/05 04:13:37;;;;;;;5.90;3.10;;;;;;;7.36;100.00;98689.05;681799;1265;138868;-80
2024/02/05 04:28:41;;;;;;;7.00;4.20;;;;;;;7.33;100.00;98685.95;681688;1262;139141;-79
2024/02/05 04:43:45;;;;;;;3.60;2.00;;;;;;;7.37;100.00;98700.88;681669;1266;139933;-80
2024/02/05 04:58:49;;;;;;;3.40;2.20;;;;;;;7.50;100.00;98715.60;681678;1266;140134;-82
2024/02/05 05:13:53;;;;;;;1.20;0.90;;;;;;;7.50;100.00;98715.11;681838;1266;138506;-80
2024/02/05 05:28:57;;;;;;;3.20;1.00;;;;;;;7.43;100.00;98728.44;681783;1264;141043;-80
2024/02/05 05:44:02;;;;;;;5.00;0.90;;;;;;;7.39;100.00;98746.15;681809;1266;139297;-80
2024/02/05 05:59:06;;;;;;;2.60;1.90;;;;;;;7.35;100.00;98754.64;681676;1263;139485;-81
2024/02/05 06:14:10;;;;;;;3.10;1.80;;;;;;;7.40;100.00;98762.17;681896;1263;139519;-81
2024/02/05 06:29:14;;;;;;;3.10;1.70;;;;;;;7.40;100.00;98767.05;681708;1265;138947;-81
2024/02/05 06:44:18;;;;;;;1.90;1.60;;;;;;;7.37;99.94;98777.09;681718;1262;139195;-80
2024/02/05 06:59:23;;;;;;;3.20;1.30;;;;;;;7.41;99.88;98773.10;681727;1262;139052;-81
2024/02/05 07:14:28;;;;;;;8.90;3.10;;;;;;;7.31;99.67;98804.63;681708;1262;138250;-81
2024/02/05 07:29:33;;;;;;;20.60;17.00;;;;;;;7.46;99.27;98829.95;681580;1265;138409;-81
2024/02/05 07:44:40;;;;;;;5.90;2.50;;;;;;;7.52;99.05;98836.50;681760;1262;138760;-82
2024/02/05 07:59:45;;;;;;;10.50;3.80;;;;;;;7.76;97.43;98852.09;681593;1262;138810;-82
2024/02/05 08:14:48;;;;;;;20.00;10.30;;;;;;;7.87;95.98;98858.62;681847;1262;139393;-81
2024/02/05 08:29:52;;;;;;;9.70;4.40;;;;;;;8.08;95.19;98869.98;681627;1262;138616;-82
2024/02/05 08:44:57;;;;;;;33.30;13.30;;;;;;;8.33;93.72;98884.40;681844;1262;138523;-82
2024/02/05 09:00:10;;;;;;;48.50;16.50;;;;;;;8.33;92.62;98890.48;681345;1265;160445;-82
2024/02/05 09:15:22;;;;;;;21.40;8.00;;;;;;;8.11;90.64;98909.36;681700;1262;139232;-82
2024/02/05 09:30:26;;;;;;;40.10;15.50;;;;;;;8.19;89.36;98921.77;681776;1263;139229;-81
2024/02/05 09:45:36;;;;;;;12.60;4.00;;;;;;;8.45;87.77;98934.27;681618;1267;139242;-83
2024/02/05 10:00:41;;;;;;;22.60;8.80;;;;;;;8.71;85.62;98936.19;681788;1266;139492;-81
2024/02/05 10:15:46;;;;;;;9.80;4.40;;;;;;;8.80;84.18;98946.27;681749;1265;138910;-83
2024/02/05 10:30:51;;;;;;;10.30;4.40;;;;;;;8.99;83.53;98963.87;681829;1270;138715;-83
2024/02/05 10:45:57;;;;;;;19.40;8.00;;;;;;;9.12;81.10;98974.55;681825;1262;138546;-82
2024/02/05 11:01:03;;;;;;;20.60;8.30;;;;;;;9.07;80.62;98978.81;681932;1265;139893;-83
2024/02/05 11:16:09;;;;;;;19.90;8.50;;;;;;;9.00;78.52;98985.55;681708;1262;140795;-82
2024/02/05 11:31:14;;;;;;;6.30;3.00;;;;;;;9.26;76.21;98977.39;681970;1265;140378;-81
2024/02/05 11:46:19;;;;;;;17.60;6.70;;;;;;;9.31;75.37;98987.83;681946;1261;138991;-81
2024/02/05 12:01:23;;;;;;;9.40;3.20;;;;;;;9.30;74.51;98990.91;681949;1265;139024;-80
2024/02/05 12:16:30;;;;;;;12.00;3.10;;;;;;;9.35;72.97;99009.43;681905;1260;139310;-81
2024/02/05 12:31:35;;;;;;;19.50;6.80;;;;;;;9.29;70.90;99024.77;682015;1262;138786;-81
2024/02/05 12:46:40;;;;;;;52.50;18.90;;;;;;;9.24;69.65;99036.19;681633;1262;140850;-81
2024/02/05 13:01:51;;;;;;;11.40;3.70;;;;;;;9.09;70.09;99043.77;681932;1262;138979;-81
2024/02/05 13:17:04;;;;;;;;;;;;;;;9.00;69.73;99051.34;681833;1265;138580;-81
2024/02/05 13:32:11;;;;;;;73.20;15.20;;;;;;;8.88;70.22;99054.94;682128;1264;125630;-81
2024/02/05 13:47:15;;;;;;;23.50;6.00;;;;;;;8.75;71.12;99068.64;681885;1264;138236;-82
2024/02/05 14:02:18;;;;;;;18.30;7.30;;;;;;;8.56;71.14;99074.67;682027;1262;138638;-82
2024/02/05 14:17:22;;;;;;;37.60;13.80;;;;;;;8.46;70.76;99083.63;682027;1262;139903;-83
2024/02/05 14:32:31;;;;;;;79.00;31.00;;;;;;;8.57;70.01;99071.80;682171;1264;139691;-82
2024/02/05 14:47:36;;;;;;;89.50;33.90;;;;;;;8.60;69.26;99071.67;682124;1265;139178;-82
2024/02/05 15:02:41;;;;;;;85.00;29.90;;;;;;;8.73;68.38;99086.05;682157;1265;139040;-81
2024/02/05 15:17:45;;;;;;;35.90;15.60;;;;;;;8.57;68.93;99117.30;682014;1265;138713;-80
2024/02/05 15:32:48;;;;;;;21.20;7.60;;;;;;;8.23;69.05;99139.38;682098;1265;138695;-80
2024/02/05 15:47:52;;;;;;;20.30;10.20;;;;;;;8.12;69.54;99155.85;681878;1265;139063;-80
2024/02/05 16:02:56;;;;;;;29.80;15.70;;;;;;;7.84;70.74;99166.23;681874;1263;138723;-80
2024/02/05 16:18:01;;;;;;;65.40;27.80;;;;;;;7.42;73.23;99180.85;681811;1262;139867;-80
2024/02/05 16:33:05;;;;;;;65.80;29.50;;;;;;;7.08;76.16;99200.46;681854;1265;138681;-80
2024/02/05 16:48:10;;;;;;;44.90;21.60;;;;;;;6.80;78.98;99210.23;681577;1266;139405;-80
2024/02/05 17:03:14;;;;;;;59.70;25.30;;;;;;;6.82;80.58;99218.77;681788;1265;140196;-82
2024/02/05 17:18:21;;;;;;;67.70;31.20;;;;;;;6.82;81.23;99213.95;681961;1265;139879;-82
2024/02/05 17:33:25;;;;;;;33.10;14.10;;;;;;;6.45;83.90;99212.80;681566;1262;139331;-81
2024/02/05 17:48:32;;;;;;;81.50;28.10;;;;;;;6.55;84.83;99212.80;681819;1265;140122;-82
2024/02/05 18:03:36;;;;;;;53.40;17.80;;;;;;;6.92;83.96;99206.60;681956;1260;139336;-81
2024/02/05 18:18:44;;;;;;;26.30;12.80;;;;;;;6.39;86.67;99214.04;682263;1265;138378;-81
2024/02/05 18:33:48;;;;;;;49.00;20.50;;;;;;;6.27;89.03;99213.18;682001;1265;139148;-81
2024/02/05 18:48:56;;;;;;;32.60;18.40;;;;;;;6.38;89.03;99209.05;682286;1265;138494;-81
2024/02/05 19:04:00;;;;;;;41.10;24.10;;;;;;;6.15;89.96;99203.41;682119;1266;138697;-81
2024/02/05 19:19:04;;;;;;;18.80;7.60;;;;;;;5.92;90.31;99191.17;682094;1264;138978;-81
2024/02/05 19:34:08;;;;;;;43.10;16.40;;;;;;;5.93;89.40;99188.09;682037;1265;139008;-81
2024/02/05 19:49:12;;;;;;;44.30;18.10;;;;;;;5.86;88.88;99187.55;682204;1264;139628;-82
2024/02/05 20:04:17;;;;;;;196.20;78.30;;;;;;;5.68;89.35;99173.91;681970;1273;139039;-82
2024/02/05 20:19:21;;;;;;;19.70;9.70;;;;;;;5.56;90.40;99162.09;682044;1265;138794;-81
2024/02/05 20:34:24;;;;;;;9.80;6.00;;;;;;;5.39;91.15;99158.55;682017;1265;138440;-82
2024/02/05 20:49:33;;;;;;;17.50;6.30;;;;;;;5.17;91.54;99145.98;682100;1265;138622;-81
2024/02/05 21:04:38;;;;;;;21.30;8.90;;;;;;;5.13;90.92;99131.73;681754;1265;159942;-81
2024/02/05 21:19:42;;;;;;;15.80;7.80;;;;;;;5.19;90.25;99129.98;682138;1260;138691;-81
2024/02/05 21:34:47;;;;;;;11.90;5.30;;;;;;;5.07;90.80;99136.05;681822;1261;138566;-82
2024/02/05 21:49:53;;;;;;;22.60;8.50;;;;;;;5.00;90.03;99129.55;681836;1265;138328;-82
2024/02/05 22:04:57;;;;;;;35.60;12.40;;;;;;;4.65;90.77;99127.48;681857;1266;138898;-80
2024/02/05 22:20:01;;;;;;;26.70;11.20;;;;;;;4.44;91.63;99128.33;681952;1263;138978;-82
2024/02/05 22:35:07;;;;;;;15.90;6.50;;;;;;;4.48;90.03;99128.05;681738;1261;139060;-83
2024/02/05 22:50:11;;;;;;;41.70;16.20;;;;;;;4.34;89.16;99121.73;681952;1262;138599;-82
2024/02/05 23:05:15;;;;;;;44.10;15.00;;;;;;;4.22;89.06;99112.63;681780;1265;138737;-82
2024/02/05 23:20:20;;;;;;;18.80;9.30;;;;;;;4.12;88.60;99101.11;682002;1260;138450;-82
2024/02/05 23:35:23;;;;;;;10.20;4.90;;;;;;;3.86;89.88;99077.40;681686;1261;140351;-81
2024/02/05 23:50:27;;;;;;;12.60;6.70;;;;;;;3.77;90.83;99073.39;681856;1261;138344;-82
